sensor_id;sensor_type;location;lat;lon;timestamp;pressure;altitude;pressure_sealevel;temperature;humidity
61136;BME280;47021;51.340;12.432;2023-05-07T00:03:38;100565.44;;;12.79;70.87
61136;BME280;47021;51.340;12.432;2023-05-07T00:06:11;100564.38;;;12.61;71.28
61136;BME280;47021;51.340;12.432;2023-05-07T00:08:51;100560.50;;;12.55;70.60
61136;BME280;47021;51.340;12.432;2023-05-07T00:11:24;100561.59;;;12.73;70.12
61136;BME280;47021;51.340;12.432;2023-05-07T00:13:50;100560.94;;;12.81;69.85
61136;BME280;47021;51.340;12.432;2023-05-07T00:16:15;100563.84;;;12.57;70.54
61136;BME280;47021;51.340;12.432;2023-05-07T00:21:26;100561.00;;;13.00;68.77
61136;BME280;47021;51.340;12.432;2023-05-07T00:23:53;100561.91;;;13.10;67.94
61136;BME280;47021;51.340;12.432;2023-05-07T00:26:26;100561.94;;;13.29;67.72
61136;BME280;47021;51.340;12.432;2023-05-07T00:28:53;100557.16;;;13.04;69.03
61136;BME280;47021;51.340;12.432;2023-05-07T00:31:20;100561.03;;;13.40;67.54
61136;BME280;47021;51.340;12.432;2023-05-07T00:33:47;100562.53;;;13.03;68.26
61136;BME280;47021;51.340;12.432;2023-05-07T00:36:27;100562.91;;;12.68;69.57
61136;BME280;47021;51.340;12.432;2023-05-07T00:39:00;100568.00;;;12.39;71.00
61136;BME280;47021;51.340;12.432;2023-05-07T00:41:32;100569.22;;;12.35;70.92
61136;BME280;47021;51.340;12.432;2023-05-07T00:43:59;100565.44;;;12.69;70.27
61136;BME280;47021;51.340;12.432;2023-05-07T00:46:25;100565.81;;;12.65;70.57
61136;BME280;47021;51.340;12.432;2023-05-07T00:48:50;100556.91;;;12.77;70.00
61136;BME280;47021;51.340;12.432;2023-05-07T00:51:15;100562.09;;;12.47;71.13
61136;BME280;47021;51.340;12.432;2023-05-07T00:53:41;100558.06;;;12.63;70.56
61136;BME280;47021;51.340;12.432;2023-05-07T00:58:43;100564.16;;;12.94;69.45
61136;BME280;47021;51.340;12.432;2023-05-07T01:01:11;100566.84;;;12.53;70.62
61136;BME280;47021;51.340;12.432;2023-05-07T01:03:52;100577.06;;;12.15;71.84
61136;BME280;47021;51.340;12.432;2023-05-07T01:06:18;100574.25;;;12.27;71.83
61136;BME280;47021;51.340;12.432;2023-05-07T01:08:50;100582.22;;;12.97;69.14
61136;BME280;47021;51.340;12.432;2023-05-07T01:19:31;100572.53;;;12.58;71.00
61136;BME280;47021;51.340;12.432;2023-05-07T01:22:14;100572.00;;;12.64;70.10
61136;BME280;47021;51.340;12.432;2023-05-07T01:24:54;100563.13;;;12.55;70.54
61136;BME280;47021;51.340;12.432;2023-05-07T01:27:26;100558.84;;;12.54;70.38
61136;BME280;47021;51.340;12.432;2023-05-07T01:30:10;100559.22;;;12.70;69.98
61136;BME280;47021;51.340;12.432;2023-05-07T01:32:48;100557.38;;;12.92;69.58
61136;BME280;47021;51.340;12.432;2023-05-07T01:35:34;100556.59;;;13.01;69.04
61136;BME280;47021;51.340;12.432;2023-05-07T01:38:11;100569.88;;;12.79;69.87
61136;BME280;47021;51.340;12.432;2023-05-07T01:49:21;100576.94;;;12.37;71.07
61136;BME280;47021;51.340;12.432;2023-05-07T01:51:59;100576.47;;;12.32;71.79
61136;BME280;47021;51.340;12.432;2023-05-07T01:57:08;100582.91;;;12.07;72.10
61136;BME280;47021;51.340;12.432;2023-05-07T02:02:19;100569.94;;;12.47;70.69
61136;BME280;47021;51.340;12.432;2023-05-07T02:04:51;100578.44;;;12.81;69.85
61136;BME280;47021;51.340;12.432;2023-05-07T02:07:30;100586.22;;;12.09;72.23
61136;BME280;47021;51.340;12.432;2023-05-07T02:09:55;100585.47;;;12.80;69.76
61136;BME280;47021;51.340;12.432;2023-05-07T02:12:38;100582.63;;;12.62;70.15
61136;BME280;47021;51.340;12.432;2023-05-07T02:15:09;100594.13;;;12.30;71.00
61136;BME280;47021;51.340;12.432;2023-05-07T02:20:30;100573.78;;;12.43;71.42
61136;BME280;47021;51.340;12.432;2023-05-07T02:23:14;100570.69;;;12.79;69.98
61136;BME280;47021;51.340;12.432;2023-05-07T02:25:42;100572.22;;;12.82;69.61
61136;BME280;47021;51.340;12.432;2023-05-07T02:28:11;100572.88;;;13.04;68.82
61136;BME280;47021;51.340;12.432;2023-05-07T02:33:20;100579.72;;;12.65;69.75
61136;BME280;47021;51.340;12.432;2023-05-07T02:35:51;100579.34;;;12.29;70.91
61136;BME280;47021;51.340;12.432;2023-05-07T02:38:29;100578.69;;;12.16;71.36
61136;BME280;47021;51.340;12.432;2023-05-07T02:43:43;100593.53;;;12.67;70.64
61136;BME280;47021;51.340;12.432;2023-05-07T02:48:58;100590.16;;;12.35;71.03
61136;BME280;47021;51.340;12.432;2023-05-07T02:51:23;100594.63;;;12.86;69.63
61136;BME280;47021;51.340;12.432;2023-05-07T02:53:48;100586.72;;;12.55;69.89
61136;BME280;47021;51.340;12.432;2023-05-07T02:59:04;100580.25;;;12.59;70.76
61136;BME280;47021;51.340;12.432;2023-05-07T03:04:13;100587.28;;;12.59;70.05
61136;BME280;47021;51.340;12.432;2023-05-07T03:06:49;100593.81;;;12.44;70.65
61136;BME280;47021;51.340;12.432;2023-05-07T03:09:15;100588.50;;;12.34;70.69
61136;BME280;47021;51.340;12.432;2023-05-07T03:11:43;100588.81;;;13.12;68.26
61136;BME280;47021;51.340;12.432;2023-05-07T03:16:51;100586.50;;;12.68;70.00
61136;BME280;47021;51.340;12.432;2023-05-07T03:19:25;100585.56;;;12.99;68.68
61136;BME280;47021;51.340;12.432;2023-05-07T03:22:09;100581.66;;;12.94;68.85
61136;BME280;47021;51.340;12.432;2023-05-07T03:24:34;100583.50;;;13.03;68.27
61136;BME280;47021;51.340;12.432;2023-05-07T03:26:59;100577.06;;;12.86;68.59
61136;BME280;47021;51.340;12.432;2023-05-07T03:29:29;100582.56;;;13.04;68.71
61136;BME280;47021;51.340;12.432;2023-05-07T03:34:29;100583.06;;;12.98;68.46
61136;BME280;47021;51.340;12.432;2023-05-07T03:36:57;100590.53;;;13.32;67.62
61136;BME280;47021;51.340;12.432;2023-05-07T03:39:22;100593.56;;;13.28;67.50
61136;BME280;47021;51.340;12.432;2023-05-07T03:41:52;100591.56;;;12.60;68.88
61136;BME280;47021;51.340;12.432;2023-05-07T03:44:34;100593.38;;;12.90;68.60
61136;BME280;47021;51.340;12.432;2023-05-07T03:47:18;100586.91;;;12.94;68.67
61136;BME280;47021;51.340;12.432;2023-05-07T04:00:50;100621.53;;;12.46;70.33
61136;BME280;47021;51.340;12.432;2023-05-07T04:03:20;100617.81;;;12.49;70.93
61136;BME280;47021;51.340;12.432;2023-05-07T04:05:51;100616.28;;;13.18;68.47
61136;BME280;47021;51.340;12.432;2023-05-07T04:08:26;100615.66;;;13.05;68.53
61136;BME280;47021;51.340;12.432;2023-05-07T04:11:00;100617.53;;;12.93;68.76
61136;BME280;47021;51.340;12.432;2023-05-07T04:13:37;100616.38;;;13.37;67.42
61136;BME280;47021;51.340;12.432;2023-05-07T04:16:04;100623.75;;;12.92;68.55
61136;BME280;47021;51.340;12.432;2023-05-07T04:18:38;100621.97;;;13.23;67.51
61136;BME280;47021;51.340;12.432;2023-05-07T04:21:05;100615.88;;;12.92;68.56
61136;BME280;47021;51.340;12.432;2023-05-07T04:28:59;100613.69;;;12.97;68.30
61136;BME280;47021;51.340;12.432;2023-05-07T04:34:16;100619.53;;;12.59;70.52
61136;BME280;47021;51.340;12.432;2023-05-07T04:36:57;100621.94;;;13.13;69.20
61136;BME280;47021;51.340;12.432;2023-05-07T04:50:50;100641.50;;;12.89;68.54
61136;BME280;47021;51.340;12.432;2023-05-07T04:53:24;100633.41;;;13.12;68.23
61136;BME280;47021;51.340;12.432;2023-05-07T04:58:49;100647.06;;;12.95;68.37
61136;BME280;47021;51.340;12.432;2023-05-07T05:04:01;100661.63;;;12.67;68.85
61136;BME280;47021;51.340;12.432;2023-05-07T05:06:42;100658.44;;;12.43;69.32
61136;BME280;47021;51.340;12.432;2023-05-07T05:09:07;100656.84;;;12.72;68.80
61136;BME280;47021;51.340;12.432;2023-05-07T05:11:34;100664.91;;;12.60;69.40
61136;BME280;47021;51.340;12.432;2023-05-07T05:14:10;100662.41;;;12.58;69.17
61136;BME280;47021;51.340;12.432;2023-05-07T05:16:37;100664.91;;;12.60;68.90
61136;BME280;47021;51.340;12.432;2023-05-07T05:19:03;100662.28;;;13.01;67.39
61136;BME280;47021;51.340;12.432;2023-05-07T05:21:33;100655.91;;;12.53;69.38
61136;BME280;47021;51.340;12.432;2023-05-07T05:24:00;100653.09;;;13.07;67.44
61136;BME280;47021;51.340;12.432;2023-05-07T05:26:26;100660.75;;;12.99;67.57
61136;BME280;47021;51.340;12.432;2023-05-07T05:28:52;100657.50;;;12.86;67.62
61136;BME280;47021;51.340;12.432;2023-05-07T05:34:02;100662.53;;;12.36;69.18
61136;BME280;47021;51.340;12.432;2023-05-07T05:36:28;100662.38;;;12.69;68.56
61136;BME280;47021;51.340;12.432;2023-05-07T05:38:55;100661.94;;;12.33;69.45
61136;BME280;47021;51.340;12.432;2023-05-07T05:41:20;100663.69;;;12.64;68.28
61136;BME280;47021;51.340;12.432;2023-05-07T05:43:46;100666.47;;;12.62;69.19
61136;BME280;47021;51.340;12.432;2023-05-07T05:46:18;100678.34;;;12.87;67.92
61136;BME280;47021;51.340;12.432;2023-05-07T05:48:43;100677.94;;;12.50;68.97
61136;BME280;47021;51.340;12.432;2023-05-07T05:51:08;100682.94;;;12.95;67.92
61136;BME280;47021;51.340;12.432;2023-05-07T05:53:33;100681.19;;;13.05;67.50
61136;BME280;47021;51.340;12.432;2023-05-07T05:56:04;100681.16;;;13.16;67.26
61136;BME280;47021;51.340;12.432;2023-05-07T05:58:35;100688.44;;;12.71;68.29
61136;BME280;47021;51.340;12.432;2023-05-07T06:01:00;100693.00;;;13.10;67.75
61136;BME280;47021;51.340;12.432;2023-05-07T06:03:25;100695.28;;;13.04;67.37
61136;BME280;47021;51.340;12.432;2023-05-07T06:06:06;100696.31;;;12.39;68.82
61136;BME280;47021;51.340;12.432;2023-05-07T06:08:33;100699.88;;;12.70;68.73
61136;BME280;47021;51.340;12.432;2023-05-07T06:19:10;100694.47;;;13.24;66.91
61136;BME280;47021;51.340;12.432;2023-05-07T06:21:44;100690.34;;;13.31;67.06
61136;BME280;47021;51.340;12.432;2023-05-07T06:24:22;100688.22;;;13.25;66.93
61136;BME280;47021;51.340;12.432;2023-05-07T06:29:42;100699.38;;;12.76;67.67
61136;BME280;47021;51.340;12.432;2023-05-07T06:32:11;100692.41;;;13.07;65.99
61136;BME280;47021;51.340;12.432;2023-05-07T06:34:37;100696.94;;;12.84;67.28
61136;BME280;47021;51.340;12.432;2023-05-07T06:37:03;100699.84;;;12.81;67.59
61136;BME280;47021;51.340;12.432;2023-05-07T06:39:29;100701.09;;;12.66;67.89
61136;BME280;47021;51.340;12.432;2023-05-07T06:41:57;100698.59;;;12.64;67.49
61136;BME280;47021;51.340;12.432;2023-05-07T06:50:12;100714.63;;;13.54;64.90
61136;BME280;47021;51.340;12.432;2023-05-07T06:52:51;100717.31;;;14.22;62.66
61136;BME280;47021;51.340;12.432;2023-05-07T07:09:23;100737.47;;;13.01;65.36
61136;BME280;47021;51.340;12.432;2023-05-07T07:11:48;100723.09;;;14.06;62.76
61136;BME280;47021;51.340;12.432;2023-05-07T07:14:21;100722.88;;;13.89;63.04
61136;BME280;47021;51.340;12.432;2023-05-07T07:16:46;100726.19;;;13.81;62.71
61136;BME280;47021;51.340;12.432;2023-05-07T07:19:12;100721.09;;;13.89;62.58
61136;BME280;47021;51.340;12.432;2023-05-07T07:21:39;100708.78;;;13.80;62.74
61136;BME280;47021;51.340;12.432;2023-05-07T07:24:04;100710.03;;;13.46;63.15
61136;BME280;47021;51.340;12.432;2023-05-07T07:26:30;100714.31;;;13.77;62.52
61136;BME280;47021;51.340;12.432;2023-05-07T07:28:56;100711.75;;;13.66;62.26
61136;BME280;47021;51.340;12.432;2023-05-07T07:31:38;100710.78;;;13.97;61.48
61136;BME280;47021;51.340;12.432;2023-05-07T07:34:16;100715.22;;;14.06;61.11
61136;BME280;47021;51.340;12.432;2023-05-07T07:42:19;100717.06;;;14.44;59.47
61136;BME280;47021;51.340;12.432;2023-05-07T07:47:29;100717.88;;;15.02;57.93
61136;BME280;47021;51.340;12.432;2023-05-07T07:55:51;100720.50;;;15.21;57.06
61136;BME280;47021;51.340;12.432;2023-05-07T08:20:26;100740.47;;;14.57;58.88
61136;BME280;47021;51.340;12.432;2023-05-07T08:22:51;100749.75;;;14.70;57.67
61136;BME280;47021;51.340;12.432;2023-05-07T08:30:44;100756.34;;;13.96;59.21
61136;BME280;47021;51.340;12.432;2023-05-07T08:33:09;100760.28;;;14.11;58.95
61136;BME280;47021;51.340;12.432;2023-05-07T08:43:37;100765.44;;;13.83;60.80
61136;BME280;47021;51.340;12.432;2023-05-07T08:48:51;100762.91;;;13.72;60.91
61136;BME280;47021;51.340;12.432;2023-05-07T08:51:43;100766.19;;;15.01;56.74
61136;BME280;47021;51.340;12.432;2023-05-07T08:54:08;100766.31;;;15.28;56.62
61136;BME280;47021;51.340;12.432;2023-05-07T08:59:53;100770.34;;;14.65;57.22
61136;BME280;47021;51.340;12.432;2023-05-07T09:02:29;100768.38;;;15.15;56.20
61136;BME280;47021;51.340;12.432;2023-05-07T09:13:07;100772.84;;;14.57;57.45
61136;BME280;47021;51.340;12.432;2023-05-07T09:15:48;100767.41;;;15.26;56.14
61136;BME280;47021;51.340;12.432;2023-05-07T09:24:05;100783.78;;;14.91;57.20
61136;BME280;47021;51.340;12.432;2023-05-07T09:32:24;100786.69;;;14.88;57.37
61136;BME280;47021;51.340;12.432;2023-05-07T09:43:19;100784.72;;;14.42;58.46
61136;BME280;47021;51.340;12.432;2023-05-07T09:57:11;100782.41;;;15.81;55.89
61136;BME280;47021;51.340;12.432;2023-05-07T10:05:12;100779.41;;;16.21;54.12
61136;BME280;47021;51.340;12.432;2023-05-07T12:21:43;100784.53;;;16.50;52.14
61136;BME280;47021;51.340;12.432;2023-05-07T12:24:09;100777.88;;;16.90;51.62
61136;BME280;47021;51.340;12.432;2023-05-07T12:33:09;100783.22;;;15.82;54.94
61136;BME280;47021;51.340;12.432;2023-05-07T12:44:15;100777.63;;;16.21;53.92
61136;BME280;47021;51.340;12.432;2023-05-07T12:52:36;100762.78;;;17.26;49.98
61136;BME280;47021;51.340;12.432;2023-05-07T12:55:19;100757.09;;;17.56;49.24
61136;BME280;47021;51.340;12.432;2023-05-07T13:00:43;100764.09;;;18.57;46.33
61136;BME280;47021;51.340;12.432;2023-05-07T13:08:53;100761.97;;;18.85;46.27
61136;BME280;47021;51.340;12.432;2023-05-07T13:11:21;100770.00;;;17.59;48.25
61136;BME280;47021;51.340;12.432;2023-05-07T13:13:54;100779.13;;;17.04;49.38
61136;BME280;47021;51.340;12.432;2023-05-07T13:16:22;100767.56;;;17.23;49.71
61136;BME280;47021;51.340;12.432;2023-05-07T13:18:47;100763.47;;;17.80;49.09
61136;BME280;47021;51.340;12.432;2023-05-07T13:21:14;100771.41;;;17.80;49.22
61136;BME280;47021;51.340;12.432;2023-05-07T13:23:41;100766.09;;;16.67;50.98
61136;BME280;47021;51.340;12.432;2023-05-07T13:34:38;100758.78;;;17.14;50.22
61136;BME280;47021;51.340;12.432;2023-05-07T13:37:09;100760.69;;;16.86;51.39
61136;BME280;47021;51.340;12.432;2023-05-07T13:39:41;100762.66;;;16.84;51.06
61136;BME280;47021;51.340;12.432;2023-05-07T13:42:17;100756.84;;;17.24;50.35
61136;BME280;47021;51.340;12.432;2023-05-07T13:44:51;100766.19;;;16.93;51.63
61136;BME280;47021;51.340;12.432;2023-05-07T13:47:17;100752.41;;;17.76;49.80
61136;BME280;47021;51.340;12.432;2023-05-07T13:50:03;100758.69;;;17.06;50.77
61136;BME280;47021;51.340;12.432;2023-05-07T13:52:28;100759.88;;;16.68;51.25
61136;BME280;47021;51.340;12.432;2023-05-07T13:54:56;100758.47;;;17.43;49.31
61136;BME280;47021;51.340;12.432;2023-05-07T13:57:28;100762.91;;;17.60;48.73
61136;BME280;47021;51.340;12.432;2023-05-07T13:59:53;100758.84;;;17.05;50.63
61136;BME280;47021;51.340;12.432;2023-05-07T14:02:19;100749.44;;;17.79;49.34
61136;BME280;47021;51.340;12.432;2023-05-07T14:07:28;100755.22;;;17.23;49.93
61136;BME280;47021;51.340;12.432;2023-05-07T14:10:00;100755.22;;;17.06;50.21
61136;BME280;47021;51.340;12.432;2023-05-07T14:12:28;100752.03;;;17.20;50.61
61136;BME280;47021;51.340;12.432;2023-05-07T14:15:09;100754.41;;;16.87;50.90
61136;BME280;47021;51.340;12.432;2023-05-07T14:17:41;100743.44;;;17.18;50.13
61136;BME280;47021;51.340;12.432;2023-05-07T14:20:23;100751.41;;;16.65;51.15
61136;BME280;47021;51.340;12.432;2023-05-07T14:22:57;100744.47;;;17.25;50.43
61136;BME280;47021;51.340;12.432;2023-05-07T14:28:20;100732.06;;;17.69;48.70
61136;BME280;47021;51.340;12.432;2023-05-07T14:30:45;100736.19;;;16.76;51.29
61136;BME280;47021;51.340;12.432;2023-05-07T14:41:28;100734.72;;;16.47;51.83
61136;BME280;47021;51.340;12.432;2023-05-07T14:49:48;100730.44;;;18.17;47.60
61136;BME280;47021;51.340;12.432;2023-05-07T14:52:24;100724.72;;;18.54;47.17
61136;BME280;47021;51.340;12.432;2023-05-07T14:54:50;100733.44;;;18.30;47.33
61136;BME280;47021;51.340;12.432;2023-05-07T14:57:18;100734.09;;;18.32;47.36
61136;BME280;47021;51.340;12.432;2023-05-07T14:59:45;100741.44;;;17.63;49.06
61136;BME280;47021;51.340;12.432;2023-05-07T15:02:20;100740.25;;;17.32;49.60
61136;BME280;47021;51.340;12.432;2023-05-07T15:04:57;100749.72;;;16.99;50.70
61136;BME280;47021;51.340;12.432;2023-05-07T15:07:23;100746.41;;;17.40;49.34
61136;BME280;47021;51.340;12.432;2023-05-07T15:10:01;100750.66;;;16.55;51.00
61136;BME280;47021;51.340;12.432;2023-05-07T15:12:32;100748.16;;;16.88;50.74
61136;BME280;47021;51.340;12.432;2023-05-07T15:17:41;100746.25;;;17.68;48.72
61136;BME280;47021;51.340;12.432;2023-05-07T15:22:51;100754.03;;;17.00;50.30
61136;BME280;47021;51.340;12.432;2023-05-07T15:28:02;100749.00;;;16.54;51.49
61136;BME280;47021;51.340;12.432;2023-05-07T15:30:40;100754.75;;;16.84;50.86
61136;BME280;47021;51.340;12.432;2023-05-07T15:33:24;100746.19;;;17.34;50.50
61136;BME280;47021;51.340;12.432;2023-05-07T15:36:06;100754.22;;;17.50;49.63
61136;BME280;47021;51.340;12.432;2023-05-07T15:43:59;100763.94;;;16.63;51.83
61136;BME280;47021;51.340;12.432;2023-05-07T15:46:25;100761.28;;;16.63;52.02
61136;BME280;47021;51.340;12.432;2023-05-07T15:48:55;100757.66;;;16.19;53.24
61136;BME280;47021;51.340;12.432;2023-05-07T15:51:30;100762.84;;;16.11;53.07
61136;BME280;47021;51.340;12.432;2023-05-07T15:56:42;100761.66;;;16.23;53.63
61136;BME280;47021;51.340;12.432;2023-05-07T16:02:04;100754.66;;;16.59;52.03
61136;BME280;47021;51.340;12.432;2023-05-07T16:07:13;100750.56;;;16.64;52.54
61136;BME280;47021;51.340;12.432;2023-05-07T16:09:54;100753.66;;;16.95;52.02
61136;BME280;47021;51.340;12.432;2023-05-07T16:15:18;100753.28;;;16.90;52.32
61136;BME280;47021;51.340;12.432;2023-05-07T16:17:45;100763.91;;;16.80;52.70
61136;BME280;47021;51.340;12.432;2023-05-07T16:20:18;100752.31;;;16.91;52.42
61136;BME280;47021;51.340;12.432;2023-05-07T16:36:38;100761.03;;;17.86;49.63
61136;BME280;47021;51.340;12.432;2023-05-07T16:41:59;100770.91;;;17.33;49.65
61136;BME280;47021;51.340;12.432;2023-05-07T16:44:26;100767.97;;;16.57;51.22
61136;BME280;47021;51.340;12.432;2023-05-07T16:46:58;100767.59;;;16.87;51.16
61136;BME280;47021;51.340;12.432;2023-05-07T16:52:12;100755.75;;;17.86;48.88
61136;BME280;47021;51.340;12.432;2023-05-07T16:54:37;100771.22;;;16.69;51.58
61136;BME280;47021;51.340;12.432;2023-05-07T16:57:03;100765.50;;;16.11;53.16
61136;BME280;47021;51.340;12.432;2023-05-07T17:10:30;100759.66;;;18.16;47.38
61136;BME280;47021;51.340;12.432;2023-05-07T17:18:47;100746.84;;;17.87;47.97
61136;BME280;47021;51.340;12.432;2023-05-07T17:21:18;100747.84;;;17.60;48.54
61136;BME280;47021;51.340;12.432;2023-05-07T17:26:30;100745.41;;;18.01;46.96
61136;BME280;47021;51.340;12.432;2023-05-07T17:42:58;100776.06;;;16.91;50.70
61136;BME280;47021;51.340;12.432;2023-05-07T17:45:43;100778.59;;;16.20;52.15
61136;BME280;47021;51.340;12.432;2023-05-07T17:48:09;100774.19;;;16.39;52.17
61136;BME280;47021;51.340;12.432;2023-05-07T17:50:34;100776.53;;;16.42;52.11
61136;BME280;47021;51.340;12.432;2023-05-07T17:53:15;100779.81;;;16.53;51.82
61136;BME280;47021;51.340;12.432;2023-05-07T18:17:28;100801.53;;;14.30;57.09
61136;BME280;47021;51.340;12.432;2023-05-07T18:20:03;100806.69;;;14.32;57.11
61136;BME280;47021;51.340;12.432;2023-05-07T18:25:23;100819.75;;;13.62;59.61
61136;BME280;47021;51.340;12.432;2023-05-07T18:30:32;100831.16;;;14.32;56.41
61136;BME280;47021;51.340;12.432;2023-05-07T18:41:25;100829.19;;;13.94;57.10
61136;BME280;47021;51.340;12.432;2023-05-07T18:44:09;100837.88;;;13.23;58.89
61136;BME280;47021;51.340;12.432;2023-05-07T18:57:35;100829.31;;;13.42;58.62
61136;BME280;47021;51.340;12.432;2023-05-07T19:38:31;100880.00;;;12.46;61.54
61136;BME280;47021;51.340;12.432;2023-05-07T19:40:57;100890.34;;;12.36;61.78
61136;BME280;47021;51.340;12.432;2023-05-07T19:43:22;100891.31;;;12.46;61.31
61136;BME280;47021;51.340;12.432;2023-05-07T19:45:54;100892.25;;;12.01;62.25
